createdAt,value
2018-07-10T00:02:06.665Z,18.50
2018-07-10T00:05:44.566Z,18.50
2018-07-10T00:08:25.125Z,18.50
2018-07-10T00:11:55.441Z,18.20
2018-07-10T00:14:23.113Z,18.20
2018-07-10T00:16:50.684Z,18.10
2018-07-10T00:19:19.102Z,18.00
2018-07-10T00:21:46.838Z,18.00
2018-07-10T00:24:14.458Z,18.00
2018-07-10T00:26:42.034Z,18.00
2018-07-10T00:29:09.649Z,17.90
2018-07-10T00:31:37.294Z,17.80
2018-07-10T00:34:04.974Z,17.70
2018-07-10T00:36:32.653Z,17.70
2018-07-10T00:39:04.936Z,17.70
2018-07-10T00:41:33.665Z,17.70
2018-07-10T00:44:02.125Z,17.60
2018-07-10T00:46:31.134Z,17.50
2018-07-10T00:48:58.846Z,17.40
2018-07-10T00:51:27.145Z,17.30
2018-07-10T00:53:54.818Z,17.30
2018-07-10T00:56:22.475Z,17.30
2018-07-10T00:58:50.900Z,17.20
2018-07-10T01:01:18.818Z,17.20
2018-07-10T01:03:47.964Z,17.10
2018-07-10T01:06:15.605Z,17.10
2018-07-10T01:08:43.462Z,17.10
2018-07-10T01:11:13.208Z,17.10
2018-07-10T01:13:41.917Z,17.10
2018-07-10T01:16:09.582Z,17.00
2018-07-10T01:18:39.626Z,17.00
2018-07-10T01:21:07.883Z,17.00
2018-07-10T01:23:36.592Z,17.00
2018-07-10T01:26:04.353Z,16.80
2018-07-10T01:28:31.928Z,16.80
2018-07-10T01:30:59.629Z,16.90
2018-07-10T01:33:27.321Z,16.90
2018-07-10T01:35:55.230Z,16.90
2018-07-10T01:38:22.853Z,16.80
2018-07-10T01:40:51.046Z,16.80
2018-07-10T01:43:18.985Z,16.80
2018-07-10T01:45:46.813Z,16.70
2018-07-10T01:48:14.507Z,16.60
2018-07-10T01:50:42.254Z,16.70
2018-07-10T01:53:09.924Z,16.80
2018-07-10T01:55:37.625Z,16.50
2018-07-10T01:58:05.254Z,16.50
2018-07-10T02:00:39.564Z,16.60
2018-07-10T02:03:11.725Z,16.50
2018-07-10T02:05:45.488Z,16.50
2018-07-10T02:08:13.102Z,16.60
2018-07-10T02:10:40.766Z,16.50
2018-07-10T02:13:08.349Z,16.50
2018-07-10T02:15:36.015Z,16.40
2018-07-10T02:18:04.005Z,16.40
2018-07-10T02:20:48.812Z,16.40
2018-07-10T02:23:16.485Z,16.30
2018-07-10T02:25:47.745Z,16.40
2018-07-10T02:28:15.406Z,16.40
2018-07-10T02:30:43.087Z,16.30
2018-07-10T02:33:10.777Z,16.30
2018-07-10T02:35:38.791Z,16.20
2018-07-10T02:38:07.113Z,16.20
2018-07-10T02:40:34.779Z,16.20
2018-07-10T02:43:02.480Z,16.30
2018-07-10T02:45:30.269Z,16.30
2018-07-10T02:47:58.579Z,16.30
2018-07-10T02:50:26.222Z,16.20
2018-07-10T02:52:54.062Z,16.20
2018-07-10T02:55:21.837Z,16.20
2018-07-10T02:57:49.533Z,16.30
2018-07-10T03:00:17.239Z,16.30
2018-07-10T03:02:44.939Z,16.30
2018-07-10T03:05:12.601Z,16.30
2018-07-10T03:07:41.842Z,16.20
2018-07-10T03:10:09.450Z,16.20
2018-07-10T03:12:38.418Z,16.10
2018-07-10T03:15:09.845Z,16.20
2018-07-10T03:17:37.629Z,16.10
2018-07-10T03:20:06.122Z,16.10
2018-07-10T03:22:33.935Z,16.10
2018-07-10T03:25:01.610Z,15.90
2018-07-10T03:27:29.285Z,15.90
2018-07-10T03:29:57.744Z,16.00
2018-07-10T03:32:25.500Z,16.00
2018-07-10T03:34:53.141Z,16.00
2018-07-10T03:37:20.803Z,16.00
2018-07-10T03:39:48.735Z,16.00
2018-07-10T03:42:17.321Z,15.90
2018-07-10T03:44:45.508Z,15.90
2018-07-10T03:47:14.554Z,16.00
2018-07-10T03:49:42.914Z,16.00
2018-07-10T03:52:11.317Z,15.90
2018-07-10T03:54:41.048Z,15.90
2018-07-10T03:57:08.925Z,15.90
2018-07-10T03:59:41.925Z,15.80
2018-07-10T04:02:09.621Z,15.80
2018-07-10T04:04:37.346Z,15.90
2018-07-10T04:07:05.218Z,16.00
2018-07-10T04:09:33.167Z,15.90
2018-07-10T04:12:00.829Z,15.90
2018-07-10T04:14:28.549Z,15.70
2018-07-10T04:16:56.410Z,15.60
2018-07-10T04:19:24.661Z,15.60
2018-07-10T04:21:54.667Z,15.40
2018-07-10T04:24:22.769Z,15.40
2018-07-10T04:27:27.275Z,15.40
2018-07-10T04:30:01.568Z,15.30
2018-07-10T04:32:29.281Z,15.30
2018-07-10T04:34:57.397Z,15.20
2018-07-10T04:37:33.076Z,15.20
2018-07-10T04:40:01.727Z,15.20
2018-07-10T04:42:34.845Z,15.20
2018-07-10T04:45:07.801Z,15.10
2018-07-10T04:47:55.124Z,15.20
2018-07-10T04:50:25.798Z,15.10
2018-07-10T04:52:59.442Z,15.10
2018-07-10T04:55:27.128Z,15.10
2018-07-10T04:58:01.265Z,15.20
2018-07-10T05:00:29.463Z,15.30
2018-07-10T05:02:58.513Z,15.30
2018-07-10T05:05:27.726Z,15.20
2018-07-10T05:07:55.528Z,15.20
2018-07-10T05:10:23.417Z,15.10
2018-07-10T05:12:51.142Z,15.30
2018-07-10T05:15:18.800Z,15.20
2018-07-10T05:17:50.797Z,15.40
2018-07-10T05:20:18.849Z,15.40
2018-07-10T05:22:46.554Z,15.40
2018-07-10T05:25:14.225Z,15.30
2018-07-10T05:27:41.925Z,15.40
2018-07-10T05:30:09.507Z,15.50
2018-07-10T05:32:37.214Z,15.70
2018-07-10T05:35:04.868Z,15.60
2018-07-10T05:37:36.782Z,15.70
2018-07-10T05:40:08.828Z,15.70
2018-07-10T05:42:46.546Z,16.00
2018-07-10T05:45:19.535Z,16.00
2018-07-10T05:47:50.827Z,16.00
2018-07-10T05:50:18.492Z,16.00
2018-07-10T05:52:46.645Z,16.00
2018-07-10T05:55:23.309Z,16.00
2018-07-10T05:57:50.974Z,16.10
2018-07-10T06:00:18.669Z,16.20
2018-07-10T06:02:47.198Z,16.40
2018-07-10T06:05:14.866Z,16.40
2018-07-10T06:07:42.900Z,16.20
2018-07-10T06:10:10.525Z,16.20
2018-07-10T06:12:38.263Z,16.10
2018-07-10T06:15:05.953Z,16.10
2018-07-10T06:17:33.713Z,16.20
2018-07-10T06:20:02.782Z,16.50
2018-07-10T06:22:30.458Z,16.80
2018-07-10T06:25:02.267Z,16.90
2018-07-10T06:28:38.072Z,16.80
2018-07-10T06:31:10.790Z,16.50
2018-07-10T06:33:44.634Z,16.50
2018-07-10T06:36:30.324Z,16.40
2018-07-10T06:39:14.568Z,16.40
2018-07-10T06:41:51.515Z,16.50
2018-07-10T06:44:20.224Z,16.60
2018-07-10T06:46:53.269Z,16.60
2018-07-10T06:49:32.778Z,16.60
2018-07-10T06:52:08.988Z,16.60
2018-07-10T06:55:13.429Z,16.80
2018-07-10T06:57:56.874Z,17.00
2018-07-10T07:00:24.748Z,17.40
2018-07-10T07:02:52.560Z,17.70
2018-07-10T07:05:20.236Z,17.80
2018-07-10T07:07:48.967Z,17.80
2018-07-10T07:10:16.932Z,17.60
2018-07-10T07:12:45.416Z,17.40
2018-07-10T07:15:17.889Z,17.40
2018-07-10T07:17:48.001Z,17.60
2018-07-10T07:20:15.614Z,17.40
2018-07-10T07:22:43.230Z,17.30
2018-07-10T07:25:10.890Z,17.30
2018-07-10T07:27:38.518Z,17.20
2018-07-10T07:30:06.729Z,17.20
2018-07-10T07:32:34.430Z,17.20
2018-07-10T07:35:02.908Z,17.60
2018-07-10T07:37:32.550Z,17.70
2018-07-10T07:40:00.294Z,17.70
2018-07-10T07:42:35.797Z,18.00
2018-07-10T07:45:03.498Z,18.20
2018-07-10T07:47:32.046Z,18.10
2018-07-10T07:49:59.806Z,18.10
2018-07-10T07:52:29.815Z,17.90
2018-07-10T07:57:26.646Z,17.60
2018-07-10T07:59:54.300Z,17.60
2018-07-10T08:02:22.682Z,17.50
2018-07-10T08:04:50.650Z,17.50
2018-07-10T08:07:18.782Z,17.60
2018-07-10T08:09:46.426Z,17.60
2018-07-10T08:14:42.064Z,18.10
2018-07-10T08:17:09.721Z,18.40
2018-07-10T08:19:37.285Z,18.60
2018-07-10T08:24:33.570Z,18.60
2018-07-10T08:27:01.222Z,18.60
2018-07-10T08:29:29.329Z,18.40
2018-07-10T08:31:57.325Z,18.30
2018-07-10T08:34:25.494Z,18.50
2018-07-10T08:36:53.361Z,18.80
2018-07-10T08:39:21.089Z,18.90
2018-07-10T08:41:49.401Z,18.90
2018-07-10T08:44:18.742Z,19.10
2018-07-10T08:46:48.274Z,19.20
2018-07-10T08:49:15.965Z,19.10
2018-07-10T08:51:45.491Z,18.70
2018-07-10T08:54:13.265Z,18.70
2018-07-10T08:56:41.096Z,18.80
2018-07-10T08:59:08.677Z,18.50
2018-07-10T09:01:36.437Z,18.20
2018-07-10T09:04:04.167Z,18.40
2018-07-10T09:06:31.842Z,18.90
2018-07-10T09:08:59.479Z,19.10
2018-07-10T09:11:27.136Z,18.80
2018-07-10T09:13:54.901Z,18.90
2018-07-10T09:16:22.613Z,18.80
2018-07-10T09:18:50.237Z,19.10
2018-07-10T09:21:18.058Z,19.30
2018-07-10T09:23:45.846Z,19.30
2018-07-10T09:26:13.551Z,19.30
2018-07-10T09:28:41.421Z,19.30
2018-07-10T09:31:09.121Z,19.40
2018-07-10T09:33:36.825Z,19.70
2018-07-10T09:36:05.106Z,20.30
2018-07-10T09:38:33.842Z,20.50
2018-07-10T09:41:01.793Z,20.40
2018-07-10T09:43:29.576Z,20.20
2018-07-10T09:45:58.170Z,20.40
2018-07-10T09:48:25.850Z,20.40
2018-07-10T09:50:53.512Z,20.40
2018-07-10T09:53:21.598Z,20.00
2018-07-10T09:55:49.305Z,20.00
2018-07-10T09:58:17.078Z,19.70
2018-07-10T10:00:50.417Z,19.50
2018-07-10T10:03:18.181Z,19.60
2018-07-10T10:05:45.869Z,19.70
2018-07-10T10:08:13.612Z,19.80
2018-07-10T10:10:41.287Z,19.60
2018-07-10T10:13:09.125Z,19.40
2018-07-10T10:15:37.357Z,19.10
2018-07-10T10:18:06.846Z,18.90
2018-07-10T10:20:35.913Z,18.80
2018-07-10T10:23:04.129Z,18.50
2018-07-10T10:28:00.187Z,18.40
2018-07-10T10:30:27.959Z,18.40
2018-07-10T10:35:23.259Z,18.60
2018-07-10T10:37:50.923Z,18.80
2018-07-10T10:40:19.174Z,18.90
2018-07-10T10:42:46.901Z,19.30
2018-07-10T10:45:14.638Z,19.40
2018-07-10T10:47:42.314Z,19.60
2018-07-10T10:50:09.929Z,19.40
2018-07-10T10:52:37.685Z,19.40
2018-07-10T10:55:05.560Z,19.50
2018-07-10T10:57:35.981Z,19.80
2018-07-10T11:00:04.990Z,19.90
2018-07-10T11:02:32.665Z,19.90
2018-07-10T11:05:00.543Z,19.60
2018-07-10T11:07:33.362Z,19.30
2018-07-10T11:10:01.173Z,19.00
2018-07-10T11:12:30.253Z,18.80
2018-07-10T11:14:58.356Z,18.70
2018-07-10T11:17:30.479Z,18.80
2018-07-10T11:20:09.724Z,19.00
2018-07-10T11:22:46.262Z,19.00
2018-07-10T11:25:14.817Z,19.20
2018-07-10T11:28:00.078Z,19.30
2018-07-10T11:30:27.983Z,19.40
2018-07-10T11:32:55.711Z,19.20
2018-07-10T11:35:23.894Z,19.10
2018-07-10T11:37:51.954Z,19.00
2018-07-10T11:40:19.629Z,19.00
2018-07-10T11:42:47.401Z,18.70
2018-07-10T11:45:15.130Z,18.80
2018-07-10T11:47:42.906Z,18.80
2018-07-10T11:50:10.750Z,18.70
2018-07-10T11:52:38.633Z,18.80
2018-07-10T11:55:07.105Z,18.80
2018-07-10T11:57:34.812Z,19.00
2018-07-10T12:00:02.558Z,19.00
2018-07-10T12:02:48.758Z,19.20
2018-07-10T12:05:18.673Z,19.40
2018-07-10T12:07:55.245Z,19.40
2018-07-10T12:10:28.843Z,19.50
2018-07-10T12:12:56.502Z,19.60
2018-07-10T12:15:24.757Z,19.40
2018-07-10T12:17:54.441Z,19.30
2018-07-10T12:21:24.850Z,19.50
2018-07-10T12:23:52.589Z,19.50
2018-07-10T12:26:20.489Z,19.30
2018-07-10T12:28:48.154Z,19.20
2018-07-10T12:31:15.869Z,19.10
2018-07-10T12:33:43.460Z,19.00
2018-07-10T12:36:11.126Z,19.00
2018-07-10T12:38:38.785Z,19.10
2018-07-10T12:41:08.013Z,19.00
2018-07-10T12:43:35.665Z,19.00
2018-07-10T12:46:03.401Z,18.90
2018-07-10T12:48:31.089Z,18.70
2018-07-10T12:50:58.767Z,18.60
2018-07-10T12:53:28.197Z,18.70
2018-07-10T12:55:58.074Z,18.50
2018-07-10T12:58:26.000Z,18.30
2018-07-10T13:00:54.335Z,18.10
2018-07-10T13:03:22.435Z,18.10
2018-07-10T13:05:55.313Z,17.90
2018-07-10T13:08:22.986Z,17.80
2018-07-10T13:10:50.710Z,17.70
2018-07-10T13:13:18.389Z,17.80
2018-07-10T13:15:46.284Z,17.70
2018-07-10T13:18:14.188Z,17.70
2018-07-10T13:20:41.901Z,17.80
2018-07-10T13:23:09.597Z,17.90
2018-07-10T13:25:37.313Z,17.80
2018-07-10T13:28:05.358Z,17.80
2018-07-10T13:30:33.041Z,17.80
2018-07-10T13:33:00.693Z,17.80
2018-07-10T13:35:28.614Z,17.90
2018-07-10T13:37:56.789Z,17.80
2018-07-10T13:40:24.605Z,17.80
2018-07-10T13:42:56.054Z,17.70
2018-07-10T13:45:24.762Z,17.80
2018-07-10T13:47:52.485Z,18.00
2018-07-10T13:50:22.717Z,18.20
2018-07-10T13:52:50.933Z,18.70
2018-07-10T13:55:18.648Z,19.20
2018-07-10T13:57:55.417Z,19.70
2018-07-10T14:00:23.201Z,19.40
2018-07-10T14:02:52.968Z,19.10
2018-07-10T14:05:21.020Z,18.90
2018-07-10T14:07:48.744Z,19.00
2018-07-10T14:10:16.409Z,19.20
2018-07-10T14:12:44.055Z,19.50
2018-07-10T14:15:11.788Z,20.00
2018-07-10T14:17:40.989Z,20.10
2018-07-10T14:20:08.676Z,20.80
2018-07-10T14:22:36.465Z,20.70
2018-07-10T14:25:04.370Z,20.40
2018-07-10T14:27:32.594Z,19.80
2018-07-10T14:30:00.290Z,19.50
2018-07-10T14:32:27.989Z,20.00
2018-07-10T14:34:55.817Z,20.00
2018-07-10T14:37:23.611Z,19.90
2018-07-10T14:39:51.317Z,20.40
2018-07-10T14:42:19.248Z,23.00
2018-07-10T14:44:47.158Z,24.30
2018-07-10T14:47:15.711Z,23.20
2018-07-10T14:49:43.806Z,23.30
2018-07-10T14:52:12.019Z,22.70
2018-07-10T14:54:40.318Z,21.40
2018-07-10T14:57:08.002Z,20.70
2018-07-10T14:59:35.657Z,20.80
2018-07-10T15:02:03.397Z,20.50
2018-07-10T15:04:32.313Z,20.70
2018-07-10T15:07:00.026Z,20.70
2018-07-10T15:09:30.703Z,20.20
2018-07-10T15:11:59.145Z,19.80
2018-07-10T15:14:26.831Z,19.70
2018-07-10T15:17:00.162Z,19.60
2018-07-10T15:19:27.745Z,19.40
2018-07-10T15:21:55.403Z,19.40
2018-07-10T15:29:24.038Z,19.10
2018-07-10T15:31:51.735Z,19.00
2018-07-10T15:34:21.541Z,18.90
2018-07-10T15:36:49.211Z,19.00
2018-07-10T15:39:16.881Z,19.60
2018-07-10T15:41:44.631Z,20.30
2018-07-10T15:44:12.297Z,20.10
2018-07-10T15:46:39.975Z,19.60
2018-07-10T15:49:07.617Z,19.20
2018-07-10T15:51:35.266Z,18.80
2018-07-10T15:54:03.035Z,18.70
2018-07-10T15:56:31.442Z,18.50
2018-07-10T15:58:59.524Z,18.20
2018-07-10T16:01:27.968Z,17.80
2018-07-10T16:03:56.069Z,17.50
2018-07-10T16:06:24.334Z,17.30
2018-07-10T16:11:22.389Z,17.20
2018-07-10T16:13:50.580Z,17.20
2018-07-10T16:16:19.263Z,17.10
2018-07-10T16:18:52.383Z,16.90
2018-07-10T16:21:20.135Z,16.90
2018-07-10T16:23:47.868Z,16.60
2018-07-10T16:26:19.458Z,16.40
2018-07-10T16:28:47.165Z,16.40
2018-07-10T16:31:17.837Z,16.10
2018-07-10T16:33:45.854Z,16.10
2018-07-10T16:36:13.554Z,16.20
2018-07-10T16:38:42.220Z,16.60
2018-07-10T16:41:17.892Z,18.40
2018-07-10T16:43:45.914Z,19.50
2018-07-10T16:46:16.556Z,20.30
2018-07-10T16:49:19.193Z,20.80
2018-07-10T16:51:54.763Z,21.20
2018-07-10T16:54:22.432Z,21.70
2018-07-10T16:56:50.326Z,21.90
2018-07-10T16:59:18.078Z,22.10
2018-07-10T17:01:45.758Z,22.30
2018-07-10T17:04:13.484Z,22.70
2018-07-10T17:06:41.202Z,22.30
2018-07-10T17:09:08.867Z,21.70
2018-07-10T17:11:36.650Z,21.20
2018-07-10T17:14:04.358Z,20.20
2018-07-10T17:16:32.095Z,19.30
2018-07-10T17:18:59.926Z,18.30
2018-07-10T17:21:28.609Z,18.00
2018-07-10T17:23:58.429Z,18.60
2018-07-10T17:26:26.777Z,19.40
2018-07-10T17:28:54.609Z,19.40
2018-07-10T17:31:22.309Z,19.60
2018-07-10T17:33:50.068Z,19.00
2018-07-10T17:36:17.832Z,19.00
2018-07-10T17:38:46.415Z,19.10
2018-07-10T17:41:14.118Z,19.00
2018-07-10T17:43:41.943Z,18.80
2018-07-10T17:46:09.573Z,19.00
2018-07-10T17:48:37.245Z,19.00
2018-07-10T17:51:04.934Z,18.90
2018-07-10T17:53:32.666Z,18.50
2018-07-10T17:56:00.558Z,18.40
2018-07-10T17:58:29.130Z,18.60
2018-07-10T18:00:56.878Z,18.80
2018-07-10T18:03:24.583Z,18.90
2018-07-10T18:05:52.221Z,19.00
2018-07-10T18:08:20.419Z,18.60
2018-07-10T18:10:48.301Z,18.50
2018-07-10T18:13:16.054Z,18.50
2018-07-10T18:15:43.762Z,18.50
2018-07-10T18:18:11.445Z,18.50
2018-07-10T18:20:39.097Z,18.30
2018-07-10T18:23:06.946Z,18.10
2018-07-10T18:25:34.467Z,17.90
2018-07-10T18:28:02.154Z,17.70
2018-07-10T18:30:29.897Z,17.60
2018-07-10T18:32:57.753Z,17.50
2018-07-10T18:35:25.630Z,17.60
2018-07-10T18:37:53.358Z,17.50
2018-07-10T18:40:21.120Z,17.50
2018-07-10T18:42:48.857Z,17.40
2018-07-10T18:45:16.485Z,17.40
2018-07-10T18:47:44.226Z,17.40
2018-07-10T18:50:12.085Z,17.30
2018-07-10T18:52:39.777Z,17.30
2018-07-10T18:55:07.594Z,17.20
2018-07-10T18:57:49.570Z,17.20
2018-07-10T19:00:24.256Z,17.30
2018-07-10T19:02:58.880Z,17.20
2018-07-10T19:05:26.653Z,17.20
2018-07-10T19:07:56.250Z,17.10
2018-07-10T19:10:29.622Z,17.10
2018-07-10T19:12:57.330Z,17.10
2018-07-10T19:15:25.214Z,17.10
2018-07-10T19:17:52.977Z,17.10
2018-07-10T19:20:20.669Z,17.00
2018-07-10T19:22:57.293Z,17.10
2018-07-10T19:25:25.121Z,17.10
2018-07-10T19:27:54.657Z,17.10
2018-07-10T19:30:31.123Z,17.10
2018-07-10T19:32:59.438Z,17.10
2018-07-10T19:35:27.149Z,17.10
2018-07-10T19:37:54.817Z,17.10
2018-07-10T19:40:22.586Z,17.10
2018-07-10T19:42:50.275Z,17.20
2018-07-10T19:45:19.101Z,17.10
2018-07-10T19:47:47.486Z,17.20
2018-07-10T19:50:17.490Z,17.20
2018-07-10T19:52:52.477Z,17.20
2018-07-10T19:55:21.469Z,17.20
2018-07-10T19:58:03.637Z,17.20
2018-07-10T20:00:40.113Z,17.20
2018-07-10T20:03:07.797Z,17.20
2018-07-10T20:05:35.989Z,17.20
2018-07-10T20:08:11.401Z,17.20
2018-07-10T20:10:46.494Z,17.10
2018-07-10T20:13:49.670Z,17.20
2018-07-10T20:16:24.907Z,17.10
2018-07-10T20:20:07.278Z,17.10
2018-07-10T20:24:51.861Z,17.10
2018-07-10T20:27:28.125Z,17.00
2018-07-10T20:30:04.833Z,16.90
2018-07-10T20:32:42.097Z,16.80
2018-07-10T20:35:16.475Z,16.80
2018-07-10T20:37:45.682Z,16.70
2018-07-10T20:40:17.244Z,16.70
2018-07-10T20:42:44.950Z,16.70
2018-07-10T20:45:12.665Z,16.70
2018-07-10T20:47:47.553Z,16.60
2018-07-10T20:50:19.362Z,16.60
2018-07-10T20:52:52.897Z,16.60
2018-07-10T20:55:23.499Z,16.50
2018-07-10T20:57:57.189Z,16.50
2018-07-10T21:00:26.010Z,16.60
2018-07-10T21:03:03.826Z,16.50
2018-07-10T21:05:37.711Z,16.60
2018-07-10T21:08:17.038Z,16.60
2018-07-10T21:10:52.762Z,16.60
2018-07-10T21:14:27.199Z,16.60
2018-07-10T21:17:07.151Z,16.60
2018-07-10T21:20:13.024Z,16.60
2018-07-10T21:22:52.700Z,16.60
2018-07-10T21:25:27.789Z,16.60
2018-07-10T21:28:06.253Z,16.60
2018-07-10T21:30:46.347Z,16.70
2018-07-10T21:33:23.447Z,16.70
2018-07-10T21:36:00.550Z,16.80
2018-07-10T21:42:44.305Z,16.70
2018-07-10T21:47:35.119Z,16.70
2018-07-10T21:50:04.452Z,16.90
2018-07-10T21:52:32.213Z,16.80
2018-07-10T21:55:00.218Z,16.80
2018-07-10T21:57:32.126Z,16.70
2018-07-10T22:00:00.031Z,16.60
2018-07-10T22:02:28.618Z,16.60
2018-07-10T22:04:56.915Z,16.60
2018-07-10T22:07:26.224Z,16.60
2018-07-10T22:09:54.150Z,16.50
2018-07-10T22:12:22.267Z,16.40
2018-07-10T22:14:50.053Z,16.40
2018-07-10T22:17:20.633Z,16.40
2018-07-10T22:19:49.445Z,16.40
2018-07-10T22:22:19.993Z,16.40
2018-07-10T22:24:48.809Z,16.20
2018-07-10T22:27:16.549Z,16.10
2018-07-10T22:29:50.454Z,16.10
2018-07-10T22:32:23.789Z,16.00
2018-07-10T22:34:51.450Z,15.90
2018-07-10T22:37:20.154Z,16.00
2018-07-10T22:39:47.829Z,16.00
2018-07-10T22:42:15.557Z,16.00
2018-07-10T22:44:51.595Z,16.00
2018-07-10T22:47:23.450Z,15.90
2018-07-10T22:49:51.150Z,15.90
2018-07-10T22:52:19.449Z,16.00
2018-07-10T22:54:47.214Z,15.90
2018-07-10T22:57:14.905Z,15.80
2018-07-10T22:59:43.606Z,15.70
2018-07-10T23:02:11.302Z,15.80
2018-07-10T23:04:39.227Z,15.70
2018-07-10T23:07:07.361Z,15.70
2018-07-10T23:09:35.165Z,15.50
2018-07-10T23:12:03.016Z,15.40
2018-07-10T23:14:30.706Z,15.40
2018-07-10T23:16:58.970Z,15.40
2018-07-10T23:19:27.726Z,15.30
2018-07-10T23:21:56.010Z,15.20
2018-07-10T23:24:24.415Z,15.20
2018-07-10T23:26:52.688Z,15.10
2018-07-10T23:29:25.470Z,15.00
2018-07-10T23:31:53.165Z,14.90
2018-07-10T23:34:20.858Z,14.80
2018-07-10T23:36:57.158Z,14.80
2018-07-10T23:39:27.202Z,14.80
2018-07-10T23:42:00.853Z,14.80
2018-07-10T23:44:34.413Z,14.60
2018-07-10T23:47:13.363Z,14.60
2018-07-10T23:49:41.114Z,14.60
2018-07-10T23:54:21.966Z,14.60
2018-07-10T23:56:49.657Z,14.50
2018-07-10T23:59:17.384Z,14.30
